sensor_id;sensor_type;location;lat;lon;timestamp;P1;durP1;ratioP1;P2;durP2;ratioP2
18489;SDS011;9374;51.382;-0.156;2022-07-21T00:01:25;10.02;;;5.32;;
18489;SDS011;9374;51.382;-0.156;2022-07-21T00:06:49;10.15;;;4.90;;
18489;SDS011;9374;51.382;-0.156;2022-07-21T00:12:12;6.75;;;4.20;;
18489;SDS011;9374;51.382;-0.156;2022-07-21T00:17:38;9.30;;;4.10;;
18489;SDS011;9374;51.382;-0.156;2022-07-21T00:23:01;8.77;;;4.10;;
18489;SDS011;9374;51.382;-0.156;2022-07-21T00:28:25;9.02;;;4.78;;
18489;SDS011;9374;51.382;-0.156;2022-07-21T00:33:50;7.22;;;4.32;;
18489;SDS011;9374;51.382;-0.156;2022-07-21T00:39:14;9.80;;;4.50;;
18489;SDS011;9374;51.382;-0.156;2022-07-21T00:44:37;7.95;;;4.22;;
18489;SDS011;9374;51.382;-0.156;2022-07-21T00:50:03;9.20;;;4.75;;
18489;SDS011;9374;51.382;-0.156;2022-07-21T00:55:29;8.13;;;4.50;;
18489;SDS011;9374;51.382;-0.156;2022-07-21T01:00:53;6.97;;;4.47;;
18489;SDS011;9374;51.382;-0.156;2022-07-21T01:06:18;4.50;;;3.28;;
18489;SDS011;9374;51.382;-0.156;2022-07-21T01:11:42;7.40;;;4.03;;
18489;SDS011;9374;51.382;-0.156;2022-07-21T01:17:06;6.80;;;3.75;;
18489;SDS011;9374;51.382;-0.156;2022-07-21T01:22:32;10.93;;;4.57;;
18489;SDS011;9374;51.382;-0.156;2022-07-21T01:27:56;6.43;;;3.90;;
18489;SDS011;9374;51.382;-0.156;2022-07-21T01:33:20;7.30;;;3.88;;
18489;SDS011;9374;51.382;-0.156;2022-07-21T01:38:45;8.15;;;4.00;;
18489;SDS011;9374;51.382;-0.156;2022-07-21T01:44:29;5.53;;;4.03;;
18489;SDS011;9374;51.382;-0.156;2022-07-21T01:49:53;7.50;;;3.85;;
18489;SDS011;9374;51.382;-0.156;2022-07-21T01:55:18;4.88;;;3.90;;
18489;SDS011;9374;51.382;-0.156;2022-07-21T02:00:41;9.90;;;3.90;;
18489;SDS011;9374;51.382;-0.156;2022-07-21T02:06:05;8.07;;;3.97;;
18489;SDS011;9374;51.382;-0.156;2022-07-21T02:11:32;5.25;;;3.70;;
18489;SDS011;9374;51.382;-0.156;2022-07-21T02:16:55;8.70;;;3.47;;
18489;SDS011;9374;51.382;-0.156;2022-07-21T02:22:19;4.95;;;3.30;;
18489;SDS011;9374;51.382;-0.156;2022-07-21T02:27:44;6.97;;;3.60;;
18489;SDS011;9374;51.382;-0.156;2022-07-21T02:33:09;6.43;;;3.20;;
18489;SDS011;9374;51.382;-0.156;2022-07-21T02:38:32;5.63;;;3.42;;
18489;SDS011;9374;51.382;-0.156;2022-07-21T02:43:57;6.38;;;3.67;;
18489;SDS011;9374;51.382;-0.156;2022-07-21T02:49:21;6.40;;;2.78;;
18489;SDS011;9374;51.382;-0.156;2022-07-21T02:54:45;4.50;;;2.58;;
18489;SDS011;9374;51.382;-0.156;2022-07-21T03:00:10;4.20;;;2.40;;
18489;SDS011;9374;51.382;-0.156;2022-07-21T03:05:35;4.78;;;2.58;;
18489;SDS011;9374;51.382;-0.156;2022-07-21T03:10:59;8.30;;;3.50;;
18489;SDS011;9374;51.382;-0.156;2022-07-21T03:16:26;7.72;;;3.05;;
18489;SDS011;9374;51.382;-0.156;2022-07-21T03:21:50;3.78;;;2.33;;
18489;SDS011;9374;51.382;-0.156;2022-07-21T03:27:14;6.03;;;2.20;;
18489;SDS011;9374;51.382;-0.156;2022-07-21T03:32:39;3.85;;;2.03;;
18489;SDS011;9374;51.382;-0.156;2022-07-21T03:38:03;7.20;;;2.78;;
18489;SDS011;9374;51.382;-0.156;2022-07-21T03:43:27;5.88;;;2.00;;
18489;SDS011;9374;51.382;-0.156;2022-07-21T03:48:52;5.70;;;2.25;;
18489;SDS011;9374;51.382;-0.156;2022-07-21T03:54:17;4.28;;;2.40;;
18489;SDS011;9374;51.382;-0.156;2022-07-21T03:59:40;2.75;;;2.00;;
18489;SDS011;9374;51.382;-0.156;2022-07-21T04:05:05;5.78;;;1.80;;
18489;SDS011;9374;51.382;-0.156;2022-07-21T04:10:32;3.00;;;1.85;;
18489;SDS011;9374;51.382;-0.156;2022-07-21T04:15:57;5.15;;;2.20;;
18489;SDS011;9374;51.382;-0.156;2022-07-21T04:21:22;6.85;;;2.13;;
18489;SDS011;9374;51.382;-0.156;2022-07-21T04:26:46;4.55;;;2.40;;
18489;SDS011;9374;51.382;-0.156;2022-07-21T04:32:09;4.30;;;2.28;;
18489;SDS011;9374;51.382;-0.156;2022-07-21T04:37:34;6.90;;;2.13;;
18489;SDS011;9374;51.382;-0.156;2022-07-21T04:42:58;6.30;;;1.95;;
18489;SDS011;9374;51.382;-0.156;2022-07-21T04:48:22;5.90;;;2.05;;
18489;SDS011;9374;51.382;-0.156;2022-07-21T04:53:47;7.32;;;2.28;;
18489;SDS011;9374;51.382;-0.156;2022-07-21T04:59:10;5.82;;;2.28;;
18489;SDS011;9374;51.382;-0.156;2022-07-21T05:04:34;4.03;;;2.08;;
18489;SDS011;9374;51.382;-0.156;2022-07-21T05:09:59;7.00;;;2.45;;
18489;SDS011;9374;51.382;-0.156;2022-07-21T05:15:26;6.28;;;2.72;;
18489;SDS011;9374;51.382;-0.156;2022-07-21T05:20:50;10.65;;;3.55;;
18489;SDS011;9374;51.382;-0.156;2022-07-21T05:26:16;3.85;;;2.45;;
18489;SDS011;9374;51.382;-0.156;2022-07-21T05:31:39;7.00;;;2.67;;
18489;SDS011;9374;51.382;-0.156;2022-07-21T05:37:03;6.20;;;2.95;;
18489;SDS011;9374;51.382;-0.156;2022-07-21T05:42:28;8.05;;;3.25;;
18489;SDS011;9374;51.382;-0.156;2022-07-21T05:47:51;8.90;;;3.47;;
18489;SDS011;9374;51.382;-0.156;2022-07-21T05:53:15;5.55;;;2.60;;
18489;SDS011;9374;51.382;-0.156;2022-07-21T05:58:40;8.57;;;3.20;;
18489;SDS011;9374;51.382;-0.156;2022-07-21T06:04:04;6.82;;;3.10;;
18489;SDS011;9374;51.382;-0.156;2022-07-21T06:09:29;5.85;;;2.90;;
18489;SDS011;9374;51.382;-0.156;2022-07-21T06:14:54;4.85;;;2.88;;
18489;SDS011;9374;51.382;-0.156;2022-07-21T06:20:18;7.20;;;2.95;;
18489;SDS011;9374;51.382;-0.156;2022-07-21T06:25:42;10.90;;;2.78;;
18489;SDS011;9374;51.382;-0.156;2022-07-21T06:31:08;5.80;;;2.80;;
18489;SDS011;9374;51.382;-0.156;2022-07-21T06:36:31;7.18;;;3.17;;
18489;SDS011;9374;51.382;-0.156;2022-07-21T06:41:55;8.48;;;3.42;;
18489;SDS011;9374;51.382;-0.156;2022-07-21T06:47:23;9.00;;;3.17;;
18489;SDS011;9374;51.382;-0.156;2022-07-21T06:52:47;10.85;;;3.30;;
